createdAt,value
2022-11-12T00:02:01.977Z,100.00
2022-11-12T00:05:21.972Z,100.00
2022-11-12T00:08:41.964Z,100.00
2022-11-12T00:12:02.190Z,100.00
2022-11-12T00:15:22.102Z,100.00
2022-11-12T00:18:41.988Z,100.00
2022-11-12T00:22:02.300Z,100.00
2022-11-12T00:25:22.256Z,100.00
2022-11-12T00:28:42.128Z,100.00
2022-11-12T00:32:02.181Z,100.00
2022-11-12T00:35:22.291Z,100.00
2022-11-12T00:38:42.409Z,100.00
2022-11-12T00:42:03.383Z,100.00
2022-11-12T00:45:23.695Z,100.00
2022-11-12T00:48:43.763Z,100.00
2022-11-12T00:52:04.571Z,100.00
2022-11-12T00:55:24.615Z,100.00
2022-11-12T00:58:45.007Z,100.00
2022-11-12T01:02:05.287Z,100.00
2022-11-12T01:05:25.502Z,100.00
2022-11-12T01:08:45.796Z,100.00
2022-11-12T01:12:05.742Z,100.00
2022-11-12T01:15:25.901Z,100.00
2022-11-12T01:18:46.448Z,100.00
2022-11-12T01:22:06.548Z,100.00
2022-11-12T01:25:26.800Z,100.00
2022-11-12T01:28:47.215Z,100.00
2022-11-12T01:32:07.519Z,100.00
2022-11-12T01:35:27.429Z,100.00
2022-11-12T01:38:49.193Z,100.00
2022-11-12T01:42:10.067Z,100.00
2022-11-12T01:45:30.389Z,100.00
2022-11-12T01:48:58.796Z,100.00
2022-11-12T01:52:28.426Z,100.00
2022-11-12T01:55:49.222Z,100.00
2022-11-12T01:59:15.839Z,100.00
2022-11-12T02:02:36.767Z,100.00
2022-11-12T02:06:08.070Z,100.00
2022-11-12T02:09:28.856Z,100.00
2022-11-12T02:13:10.643Z,100.00
2022-11-12T02:16:36.005Z,100.00
2022-11-12T02:19:59.532Z,100.00
2022-11-12T02:23:19.497Z,100.00
2022-11-12T02:26:48.952Z,100.00
2022-11-12T02:30:09.264Z,100.00
2022-11-12T02:33:29.155Z,100.00
2022-11-12T02:36:49.353Z,100.00
2022-11-12T02:40:09.965Z,100.00
2022-11-12T02:43:29.826Z,100.00
2022-11-12T02:46:50.098Z,100.00
2022-11-12T02:50:10.329Z,100.00
2022-11-12T02:53:32.431Z,100.00
2022-11-12T02:56:52.658Z,100.00
2022-11-12T03:00:14.103Z,100.00
2022-11-12T03:03:34.208Z,100.00
2022-11-12T03:06:54.532Z,100.00
2022-11-12T03:10:14.427Z,100.00
2022-11-12T03:13:34.547Z,100.00
2022-11-12T03:16:54.764Z,100.00
2022-11-12T03:20:14.759Z,100.00
2022-11-12T03:23:35.008Z,100.00
2022-11-12T03:26:55.262Z,100.00
2022-11-12T03:30:15.411Z,100.00
2022-11-12T03:33:38.186Z,100.00
2022-11-12T03:36:58.212Z,100.00
2022-11-12T03:40:18.911Z,100.00
2022-11-12T03:43:39.127Z,100.00
2022-11-12T03:46:59.563Z,100.00
2022-11-12T03:50:22.523Z,100.00
2022-11-12T03:53:42.874Z,100.00
2022-11-12T03:57:02.790Z,100.00
2022-11-12T04:00:25.015Z,100.00
2022-11-12T04:03:44.943Z,100.00
2022-11-12T04:07:23.358Z,100.00
2022-11-12T04:10:43.677Z,100.00
2022-11-12T04:14:03.889Z,100.00
2022-11-12T04:17:44.423Z,100.00
2022-11-12T04:21:23.584Z,100.00
2022-11-12T04:25:02.435Z,100.00
2022-11-12T04:28:22.637Z,100.00
2022-11-12T04:31:42.635Z,100.00
2022-11-12T04:35:03.725Z,100.00
2022-11-12T04:38:24.090Z,100.00
2022-11-12T04:42:02.880Z,100.00
2022-11-12T04:45:23.513Z,100.00
2022-11-12T04:48:43.528Z,100.00
2022-11-12T04:52:06.420Z,100.00
2022-11-12T04:55:26.439Z,100.00
2022-11-12T04:58:46.795Z,100.00
2022-11-12T05:02:06.893Z,100.00
2022-11-12T05:05:32.529Z,100.00
2022-11-12T05:08:53.616Z,100.00
2022-11-12T05:12:13.539Z,100.00
2022-11-12T05:15:33.674Z,100.00
2022-11-12T05:18:53.573Z,100.00
2022-11-12T05:22:33.356Z,100.00
2022-11-12T05:25:53.595Z,100.00
2022-11-12T05:29:13.967Z,100.00
2022-11-12T05:32:34.392Z,100.00
2022-11-12T05:35:56.455Z,100.00
2022-11-12T05:39:16.738Z,100.00
2022-11-12T05:42:36.831Z,100.00
2022-11-12T05:45:56.640Z,100.00
2022-11-12T05:49:17.812Z,100.00
2022-11-12T05:52:38.042Z,100.00
2022-11-12T05:56:05.112Z,100.00
2022-11-12T05:59:24.992Z,100.00
2022-11-12T06:02:45.784Z,100.00
2022-11-12T06:06:06.352Z,100.00
2022-11-12T06:09:26.236Z,100.00
2022-11-12T06:12:46.182Z,100.00
2022-11-12T06:16:07.401Z,100.00
2022-11-12T06:19:27.320Z,100.00
2022-11-12T06:22:47.326Z,100.00
2022-11-12T06:26:07.403Z,100.00
2022-11-12T06:29:28.046Z,100.00
2022-11-12T06:32:49.161Z,100.00
2022-11-12T06:36:11.433Z,100.00
2022-11-12T06:39:31.487Z,100.00
2022-11-12T06:42:57.095Z,100.00
2022-11-12T06:46:18.087Z,100.00
2022-11-12T06:49:38.407Z,100.00
2022-11-12T06:52:59.302Z,100.00
2022-11-12T06:56:19.426Z,100.00
2022-11-12T06:59:39.394Z,100.00
2022-11-12T07:02:59.560Z,100.00
2022-11-12T07:06:20.548Z,100.00
2022-11-12T07:09:41.079Z,100.00
2022-11-12T07:13:01.228Z,100.00
2022-11-12T07:16:22.400Z,100.00
2022-11-12T07:19:42.491Z,100.00
2022-11-12T07:23:02.647Z,100.00
2022-11-12T07:26:25.342Z,100.00
2022-11-12T07:29:48.637Z,100.00
2022-11-12T07:33:08.906Z,100.00
2022-11-12T07:36:28.783Z,100.00
2022-11-12T07:39:48.962Z,100.00
2022-11-12T07:43:09.031Z,100.00
2022-11-12T07:46:29.068Z,100.00
2022-11-12T07:49:49.250Z,100.00
2022-11-12T07:53:09.003Z,100.00
2022-11-12T07:56:29.213Z,100.00
2022-11-12T07:59:49.084Z,100.00
2022-11-12T08:03:09.040Z,100.00
2022-11-12T08:06:30.927Z,100.00
2022-11-12T08:09:51.138Z,100.00
2022-11-12T08:13:11.539Z,100.00
2022-11-12T08:16:31.654Z,100.00
2022-11-12T08:19:55.218Z,100.00
2022-11-12T08:23:15.181Z,100.00
2022-11-12T08:26:35.318Z,100.00
2022-11-12T08:29:55.278Z,100.00
2022-11-12T08:33:15.567Z,100.00
2022-11-12T08:36:35.894Z,100.00
2022-11-12T08:39:55.871Z,100.00
2022-11-12T08:43:15.912Z,100.00
2022-11-12T08:46:36.073Z,100.00
2022-11-12T08:49:56.036Z,100.00
2022-11-12T08:53:15.943Z,100.00
2022-11-12T08:56:35.823Z,100.00
2022-11-12T08:59:55.979Z,100.00
2022-11-12T09:03:18.886Z,100.00
2022-11-12T09:06:38.824Z,100.00
2022-11-12T09:10:01.579Z,100.00
2022-11-12T09:13:21.844Z,100.00
2022-11-12T09:16:41.743Z,100.00
2022-11-12T09:20:01.936Z,100.00
2022-11-12T09:23:22.170Z,100.00
2022-11-12T09:26:42.480Z,100.00
2022-11-12T09:30:02.960Z,100.00
2022-11-12T09:33:30.192Z,100.00
2022-11-12T09:36:50.531Z,100.00
2022-11-12T09:40:18.131Z,100.00
2022-11-12T09:44:01.855Z,100.00
2022-11-12T09:47:51.158Z,100.00
2022-11-12T09:51:18.508Z,100.00
2022-11-12T09:54:38.844Z,100.00
2022-11-12T09:57:58.936Z,100.00
2022-11-12T10:01:38.722Z,100.00
2022-11-12T10:05:26.634Z,100.00
2022-11-12T10:09:11.929Z,100.00
2022-11-12T10:12:46.772Z,100.00
2022-11-12T10:16:40.888Z,100.00
2022-11-12T10:20:38.788Z,100.00
2022-11-12T10:24:00.980Z,100.00
2022-11-12T10:27:26.097Z,100.00
2022-11-12T10:30:46.847Z,100.00
2022-11-12T10:34:21.347Z,100.00
2022-11-12T10:37:49.358Z,100.00
2022-11-12T10:41:33.431Z,100.00
2022-11-12T10:44:53.368Z,100.00
2022-11-12T10:48:27.229Z,100.00
2022-11-12T10:51:59.214Z,100.00
2022-11-12T10:55:28.192Z,100.00
2022-11-12T10:59:13.986Z,100.00
2022-11-12T11:02:34.585Z,100.00
2022-11-12T11:05:56.757Z,100.00
2022-11-12T11:09:18.272Z,100.00
2022-11-12T11:12:38.259Z,100.00
2022-11-12T11:16:02.997Z,100.00
2022-11-12T11:19:27.354Z,100.00
2022-11-12T11:22:53.263Z,100.00
2022-11-12T11:26:29.475Z,100.00
2022-11-12T11:30:05.836Z,100.00
2022-11-12T11:34:03.810Z,100.00
2022-11-12T11:37:27.016Z,100.00
2022-11-12T11:41:03.834Z,100.00
2022-11-12T11:44:36.457Z,99.83
2022-11-12T11:48:14.646Z,98.31
2022-11-12T11:51:48.193Z,98.38
2022-11-12T11:55:25.570Z,96.80
2022-11-12T11:58:56.298Z,95.19
2022-11-12T12:02:49.352Z,92.54
2022-11-12T12:06:26.562Z,91.36
2022-11-12T12:10:34.753Z,90.41
2022-11-12T12:14:32.090Z,89.21
2022-11-12T12:18:28.175Z,89.11
2022-11-12T12:21:51.217Z,87.35
2022-11-12T12:25:22.136Z,84.75
2022-11-12T12:28:49.816Z,83.42
2022-11-12T12:32:24.497Z,83.08
2022-11-12T12:36:08.148Z,81.91
2022-11-12T12:40:03.586Z,83.77
2022-11-12T12:43:34.971Z,85.75
2022-11-12T12:47:00.826Z,87.22
2022-11-12T12:50:22.440Z,87.22
2022-11-12T12:53:42.449Z,88.05
2022-11-12T12:57:31.466Z,87.48
2022-11-12T13:00:55.433Z,88.20
2022-11-12T13:04:15.606Z,89.27
2022-11-12T13:07:42.713Z,90.62
2022-11-12T13:11:02.913Z,91.14
2022-11-12T13:14:31.610Z,91.83
2022-11-12T13:17:51.658Z,93.57
2022-11-12T13:21:11.745Z,94.70
2022-11-12T13:25:03.096Z,95.20
2022-11-12T13:28:23.461Z,94.83
2022-11-12T13:31:43.711Z,93.68
2022-11-12T13:35:22.096Z,94.06
2022-11-12T13:38:42.099Z,92.75
2022-11-12T13:42:47.096Z,95.37
2022-11-12T13:46:07.207Z,97.30
2022-11-12T13:49:27.298Z,98.79
2022-11-12T13:52:48.315Z,99.86
2022-11-12T13:56:11.821Z,100.00
2022-11-12T13:59:31.995Z,100.00
2022-11-12T14:03:06.351Z,100.00
2022-11-12T14:06:39.029Z,100.00
2022-11-12T14:10:19.196Z,100.00
2022-11-12T14:14:07.305Z,100.00
2022-11-12T14:17:46.295Z,100.00
2022-11-12T14:21:10.956Z,100.00
2022-11-12T14:24:32.895Z,100.00
2022-11-12T14:27:55.212Z,100.00
2022-11-12T14:31:23.281Z,100.00
2022-11-12T14:34:43.498Z,100.00
2022-11-12T14:38:12.075Z,100.00
2022-11-12T14:41:37.121Z,100.00
2022-11-12T14:44:57.478Z,100.00
2022-11-12T14:48:18.239Z,100.00
2022-11-12T14:51:48.358Z,100.00
2022-11-12T14:55:15.362Z,100.00
2022-11-12T14:58:39.760Z,100.00
2022-11-12T15:02:29.638Z,100.00
2022-11-12T15:06:09.747Z,100.00
2022-11-12T15:09:35.622Z,100.00
2022-11-12T15:13:17.673Z,100.00
2022-11-12T15:16:43.148Z,100.00
2022-11-12T15:20:06.766Z,100.00
2022-11-12T15:23:27.126Z,100.00
2022-11-12T15:26:50.621Z,100.00
2022-11-12T15:30:16.298Z,100.00
2022-11-12T15:33:36.336Z,100.00
2022-11-12T15:37:11.016Z,100.00
2022-11-12T15:40:33.035Z,100.00
2022-11-12T15:43:53.572Z,100.00
2022-11-12T15:47:22.697Z,100.00
2022-11-12T15:50:42.785Z,100.00
2022-11-12T15:54:03.226Z,100.00
2022-11-12T15:57:28.438Z,100.00
2022-11-12T16:00:48.771Z,100.00
2022-11-12T16:04:11.766Z,100.00
2022-11-12T16:07:31.746Z,100.00
2022-11-12T16:10:51.754Z,100.00
2022-11-12T16:14:13.954Z,100.00
2022-11-12T16:17:33.925Z,100.00
2022-11-12T16:20:54.131Z,100.00
2022-11-12T16:24:14.453Z,100.00
2022-11-12T16:27:36.163Z,100.00
2022-11-12T16:30:56.378Z,100.00
2022-11-12T16:34:16.676Z,100.00
2022-11-12T16:37:38.397Z,100.00
2022-11-12T16:40:58.732Z,100.00
2022-11-12T16:44:18.809Z,100.00
2022-11-12T16:47:47.510Z,100.00
2022-11-12T16:51:17.829Z,100.00
2022-11-12T16:54:37.907Z,100.00
2022-11-12T16:57:57.965Z,100.00
2022-11-12T17:01:29.383Z,100.00
2022-11-12T17:04:49.727Z,100.00
2022-11-12T17:08:10.846Z,100.00
2022-11-12T17:11:30.817Z,100.00
2022-11-12T17:14:51.333Z,100.00
2022-11-12T17:18:11.891Z,100.00
2022-11-12T17:21:31.813Z,100.00
2022-11-12T17:24:54.081Z,100.00
2022-11-12T17:28:14.458Z,100.00
2022-11-12T17:31:35.544Z,100.00
2022-11-12T17:34:55.559Z,100.00
2022-11-12T17:38:15.825Z,100.00
2022-11-12T17:41:35.959Z,100.00
2022-11-12T17:44:55.858Z,100.00
2022-11-12T17:48:16.320Z,100.00
2022-11-12T17:51:37.247Z,100.00
2022-11-12T17:54:57.801Z,100.00
2022-11-12T17:58:17.760Z,100.00
2022-11-12T18:01:38.124Z,100.00
2022-11-12T18:04:58.259Z,100.00
2022-11-12T18:08:18.813Z,100.00
2022-11-12T18:11:48.133Z,100.00
2022-11-12T18:15:08.428Z,100.00
2022-11-12T18:18:29.816Z,100.00
2022-11-12T18:21:50.011Z,100.00
2022-11-12T18:25:10.328Z,100.00
2022-11-12T18:28:30.786Z,100.00
2022-11-12T18:31:50.753Z,100.00
2022-11-12T18:35:11.298Z,100.00
2022-11-12T18:38:35.890Z,100.00
2022-11-12T18:41:55.927Z,100.00
2022-11-12T18:45:16.078Z,100.00
2022-11-12T18:48:38.117Z,100.00
2022-11-12T18:51:58.538Z,100.00
2022-11-12T18:55:21.554Z,100.00
2022-11-12T18:58:41.778Z,100.00
2022-11-12T19:02:01.805Z,100.00
2022-11-12T19:05:22.501Z,100.00
2022-11-12T19:08:42.683Z,100.00
2022-11-12T19:12:03.374Z,100.00
2022-11-12T19:15:26.743Z,100.00
2022-11-12T19:18:47.647Z,100.00
2022-11-12T19:22:07.868Z,100.00
2022-11-12T19:25:27.879Z,100.00
2022-11-12T19:28:48.098Z,100.00
2022-11-12T19:32:08.327Z,100.00
2022-11-12T19:35:28.193Z,100.00
2022-11-12T19:38:53.887Z,100.00
2022-11-12T19:42:13.896Z,100.00
2022-11-12T19:45:34.097Z,100.00
2022-11-12T19:48:54.828Z,100.00
2022-11-12T19:52:14.990Z,100.00
2022-11-12T19:55:39.724Z,100.00
2022-11-12T19:59:00.477Z,100.00
2022-11-12T20:02:20.639Z,100.00
2022-11-12T20:05:40.593Z,100.00
2022-11-12T20:09:00.908Z,100.00
2022-11-12T20:12:21.388Z,100.00
2022-11-12T20:15:41.676Z,100.00
2022-11-12T20:19:02.420Z,100.00
2022-11-12T20:22:22.377Z,100.00
2022-11-12T20:25:43.059Z,100.00
2022-11-12T20:29:03.446Z,100.00
2022-11-12T20:32:23.587Z,100.00
2022-11-12T20:35:44.227Z,100.00
2022-11-12T20:39:04.696Z,100.00
2022-11-12T20:42:25.044Z,100.00
2022-11-12T20:45:51.015Z,100.00
2022-11-12T20:49:10.872Z,100.00
2022-11-12T20:52:31.092Z,100.00
2022-11-12T20:55:50.969Z,100.00
2022-11-12T20:59:10.973Z,100.00
2022-11-12T21:02:31.286Z,100.00
2022-11-12T21:06:00.088Z,100.00
2022-11-12T21:09:20.147Z,100.00
2022-11-12T21:12:40.428Z,100.00
2022-11-12T21:16:00.572Z,100.00
2022-11-12T21:19:20.882Z,100.00
2022-11-12T21:22:45.622Z,100.00
2022-11-12T21:26:09.831Z,100.00
2022-11-12T21:29:29.835Z,100.00
2022-11-12T21:32:50.121Z,100.00
2022-11-12T21:36:15.852Z,100.00
2022-11-12T21:39:36.477Z,100.00
2022-11-12T21:42:56.451Z,100.00
2022-11-12T21:46:19.711Z,100.00
2022-11-12T21:49:39.927Z,100.00
2022-11-12T21:53:00.141Z,100.00
2022-11-12T21:56:20.647Z,100.00
2022-11-12T21:59:40.423Z,100.00
2022-11-12T22:03:00.375Z,100.00
2022-11-12T22:06:23.176Z,100.00
2022-11-12T22:09:43.476Z,100.00
2022-11-12T22:13:25.818Z,100.00
2022-11-12T22:16:43.544Z,100.00
2022-11-12T22:20:04.010Z,100.00
2022-11-12T22:23:23.930Z,100.00
2022-11-12T22:26:43.943Z,100.00
2022-11-12T22:30:04.396Z,100.00
2022-11-12T22:33:24.424Z,100.00
2022-11-12T22:36:44.906Z,100.00
2022-11-12T22:40:10.495Z,100.00
2022-11-12T22:43:33.743Z,100.00
2022-11-12T22:46:53.850Z,100.00
2022-11-12T22:50:14.088Z,100.00
2022-11-12T22:53:34.783Z,100.00
2022-11-12T22:56:55.083Z,100.00
2022-11-12T23:00:15.874Z,100.00
2022-11-12T23:03:36.989Z,100.00
2022-11-12T23:06:56.996Z,100.00
2022-11-12T23:10:16.976Z,100.00
2022-11-12T23:13:37.936Z,100.00
2022-11-12T23:16:59.390Z,100.00
2022-11-12T23:20:19.404Z,100.00
2022-11-12T23:23:39.930Z,100.00
2022-11-12T23:27:01.184Z,100.00
2022-11-12T23:30:21.329Z,100.00
2022-11-12T23:33:45.478Z,100.00
2022-11-12T23:37:05.758Z,100.00
2022-11-12T23:40:30.787Z,100.00
2022-11-12T23:43:52.295Z,100.00
2022-11-12T23:47:12.379Z,100.00
2022-11-12T23:50:32.521Z,100.00
2022-11-12T23:53:52.835Z,100.00
2022-11-12T23:57:13.128Z,100.00
